NEODyS-2

Near Earth Objects - Dynamic Site
NEODyS ∴ Observatories ∴ Site 691 ∴ Obs & residuals
Contact »
691  ▹ 
OBSERVATIONS AND RESIDUALS

691-Steward Observatory, Kitt Peak-Spacewatch

Detections | Residuals | Detections & Residuals

[1-200] [201-400] [401-600] [601-800] [801-1000] [1001-1200] [1201-1400] [1401-1600] [1601-1800] [1801-2000] [2001-2200] [2201-2400] [2401-2600] [2601-2800] [2801-3000] [3001-3200] [3201-3400] [3401-3600] [3601-3800] [3801-4000] [4001-4200] [4201-4400] [4401-4600] [4601-4800] [4801-5000] [5001-5200] [5201-5400] [5401-5600] [5601-5800] [5801-6000] [6001-6200] [6201-6400] [6401-6600] [6601-6800] [6801-7000] [7001-7200] [7201-7400] [7401-7600] [7601-7800] [7801-8000] [8001-8200] [8201-8400] [8401-8600] [8601-8800] [8801-9000] [9001-9200] [9201-9400] [9401-9600] [9601-9800] [9801-10000] [10001-10200] [10201-10400] [10401-10600] [10601-10800] [10801-11000] [11001-11200] [11201-11400] [11401-11600] [11601-11800] [11801-12000] [12001-12200] [12201-12400] [12401-12600] [12601-12800] [12801-13000] [13001-13200] [13201-13400] [13401-13600] [13601-13800] [13801-14000] [14001-14200] [14201-14400] [14401-14600] [14601-14800] [14801-15000] [15001-15200] [15201-15400] [15401-15600] [15601-15800] [15801-16000] [16001-16200] [16201-16400] [16401-16600] [16601-16800] [16801-17000] [17001-17200] [17201-17400] [17401-17600] [17601-17800] [17801-18000] [18001-18200] [18201-18400] [18401-18600] [18601-18800] [18801-19000] [19001-19200] [19201-19400] [19401-19600] [19601-19800] [19801-20000] [20001-20200] [20201-20400] [20401-20600] [20601-20800] [20801-21000] [21001-21200] [21201-21400] [21401-21600] [21601-21800] [21801-22000] [22001-22200] [22201-22400] [22401-22600] [22601-22800] [22801-23000] [23001-23200] [23201-23400] [23401-23600] [23601-23800] [23801-24000] [24001-24200] [24201-24400] [24401-24600] [24601-24800] [24801-25000] [25001-25200] [25201-25400] [25401-25600] [25601-25800] [25801-26000] [26001-26200] [26201-26400] [26401-26600] [26601-26800] [26801-27000] [27001-27200] [27201-27400] [27401-27600] [27601-27800] [27801-28000] [28001-28200] [28201-28400] [28401-28600] [28601-28800] [28801-29000] [29001-29200] [29201-29400] [29401-29600] [29601-29800] [29801-30000] [30001-30200] [30201-30400] [30401-30600] [30601-30800] [30801-31000] [31001-31200] [31201-31400] [31401-31600] [31601-31800] [31801-32000] [32001-32200] [32201-32400] [32401-32600] [32601-32800] [32801-33000] [33001-33200] [33201-33400] [33401-33600] [33601-33800] [33801-34000] [34001-34200] [34201-34400] [34401-34600] [34601-34800] [34801-35000] [35001-35200] [35201-35400] [35401-35600] [35601-35800] [35801-36000] [36001-36200] [36201-36400] [36401-36600] [36601-36800] [36801-37000] [37001-37200] [37201-37400] [37401-37600] [37601-37800] [37801-38000] [38001-38200] [38201-38400] [38401-38600] [38601-38800] [38801-39000] [39001-39200] [39201-39400] [39401-39600] [39601-39800] [39801-40000] [40001-40200] [40201-40400] [40401-40600] [40601-40800] [40801-41000] [41001-41200] [41201-41400] [41401-41600] [41601-41800] [41801-42000] [42001-42200] [42201-42400] [42401-42600] [42601-42800] [42801-43000] [43001-43200] [43201-43400] [43401-43600] [43601-43800] [43801-44000] [44001-44200] [44201-44400] [44401-44600] [44601-44800] [44801-45000] [45001-45200] [45201-45400] [45401-45600] [45601-45800] [45801-46000] [46001-46200] [46201-46400] [46401-46600] [46601-46800] [46801-47000] [47001-47200] [47201-47400] [47401-47600] [47601-47800] [47801-48000] [48001-48200] [48201-48400] [48401-48600] [48601-48800] [48801-49000] [49001-49200] [49201-49400] [49401-49600] [49601-49800] [49801-50000] [50001-50200] [50201-50388]

Designation T Tech N Date Right Ascension Declination Apparent Magnitude Star Catalog Site code χ Used A Used M
yr-mo-day precision hr:min:sec precision rms F bias residual deg min sec precision rms F bias residual mag/col rms residual
Cuyo O C 2013-03-23.33577 1.000E-05 13:05:09.110 1.500E-01 0.500 F 0.168 -0.650 -04° 12' 23.70" 1.000E-01 0.500 F 0.102 -0.374 19.5 V 0.70 0.56 o 691 1.50 Yes Yes
2013EV89 O C 2013-03-23.34824 1.000E-05 13:16:37.620 1.500E-01 0.500 F 0.136 0.343 -02° 27' 28.70" 1.000E-01 0.500 F 0.135 -1.156 19.1 V 0.70 -0.21 o 691 2.43 Yes Yes
Cuyo O C 2013-03-23.35341 1.000E-05 13:05:08.180 1.500E-01 0.500 F 0.168 -0.009 -04° 12' 12.10" 1.000E-01 0.500 F 0.102 0.147 19.7 V 0.70 0.76 o 691 0.30 Yes Yes
2010CR1 O C t 2013-03-31.14225 1.000E-05 04:31:36.740 1.500E-01 0.500 F -0.138 0.415 +19° 17' 40.30" 1.000E-01 0.500 F 0.178 -0.239 21.0 V 0.70 0.67 o 691 0.98 Yes Yes
2010CR1 O C t 2013-03-31.14515 1.000E-05 04:31:38.110 1.500E-01 0.500 F -0.138 0.596 +19° 17' 38.10" 1.000E-01 0.500 F 0.178 -0.522 20.8 V 0.70 0.47 o 691 1.61 Yes Yes
2010CR1 O C t 2013-03-31.14818 1.000E-05 04:31:39.450 1.500E-01 0.500 F -0.138 -0.512 +19° 17' 36.20" 1.000E-01 0.500 F 0.178 -0.419 20.5 V 0.70 0.17 o 691 1.34 Yes Yes
2013EH89 O C t 2013-03-31.17850 1.000E-05 08:53:28.630 1.500E-01 0.612 F 0.038 0.252 -02° 37' 50.10" 1.000E-01 0.612 F 0.108 -0.611 21.1 V 0.70 0.15 o 691 1.08 Yes Yes
2013EH89 O C t 2013-03-31.18301 1.000E-05 08:53:29.210 1.500E-01 0.612 F 0.038 0.682 -02° 37' 47.30" 1.000E-01 0.612 F 0.108 -0.593 o 691 1.48 Yes No
2013EH89 O C t 2013-03-31.18778 1.000E-05 08:53:29.770 1.500E-01 0.612 F 0.038 0.334 -02° 37' 44.30" 1.000E-01 0.612 F 0.108 -0.536 21.1 V 0.70 0.15 o 691 1.04 Yes Yes
2013EH89 O C 2013-03-31.20097 1.000E-05 08:53:31.350 1.500E-01 0.612 F 0.038 -0.170 -02° 37' 35.80" 1.000E-01 0.612 F 0.108 -0.173 20.9 V 0.70 -0.05 o 691 0.40 Yes Yes
2013EH89 O C 2013-03-31.20561 1.000E-05 08:53:31.930 1.500E-01 0.612 F 0.038 0.010 -02° 37' 32.60" 1.000E-01 0.612 F 0.108 0.165 20.9 V 0.70 -0.05 o 691 0.27 Yes Yes
2013EH89 O C 2013-03-31.21029 1.000E-05 08:53:32.530 1.500E-01 0.612 F 0.038 0.412 -02° 37' 30.00" 1.000E-01 0.612 F 0.108 -0.122 20.6 V 0.70 -0.35 o 691 0.71 Yes Yes
2013DZ O C H 2013-03-31.22084 1.000E-05 11:20:11.060 1.500E-01 0.500 F 0.111 -0.147 -09° 11' 06.20" 1.000E-01 0.500 F -0.033 -0.246 o 691 0.59 Yes No
2013DZ O C H 2013-03-31.22570 1.000E-05 11:20:11.810 1.500E-01 0.500 F 0.111 0.548 -09° 11' 08.60" 1.000E-01 0.500 F -0.033 -0.450 o 691 1.47 Yes No
2013DZ O C H 2013-03-31.23020 1.000E-05 11:20:12.470 1.500E-01 0.500 F 0.111 0.687 -09° 11' 10.90" 1.000E-01 0.500 F -0.033 -0.721 o 691 2.06 Yes No
2013FA8 O C 2013-03-31.25950 1.000E-05 12:57:01.090 1.500E-01 0.500 F 0.303 -0.383 +00° 32' 34.20" 1.000E-01 0.500 F 0.319 -0.170 19.5 V 0.70 0.44 o 691 0.85 Yes Yes
2013FA8 O C 2013-03-31.26449 1.000E-05 12:57:00.170 1.500E-01 0.500 F 0.303 -0.335 +00° 32' 39.20" 1.000E-01 0.500 F 0.319 0.056 19.5 V 0.70 0.44 o 691 0.69 Yes Yes
2013FA8 O C 2013-03-31.26805 1.000E-05 12:56:59.500 1.500E-01 0.500 F 0.303 -0.502 +00° 32' 42.30" 1.000E-01 0.500 F 0.319 -0.249 19.6 V 0.70 0.54 o 691 1.13 Yes Yes
2013ER89 O C 2013-03-31.34701 1.000E-05 11:44:21.340 1.500E-01 0.500 F 0.102 -0.513 -20° 07' 44.10" 1.000E-01 0.500 F -0.095 0.005 18.9 V 0.70 0.18 o 691 1.05 Yes Yes
2013ER89 O C 2013-03-31.34982 1.000E-05 11:44:20.150 1.500E-01 0.500 F 0.102 -0.404 -20° 07' 56.90" 1.000E-01 0.500 F -0.095 -0.190 19.0 V 0.70 0.28 o 691 0.92 Yes Yes
2013ER89 O C 2013-03-31.35267 1.000E-05 11:44:18.930 1.500E-01 0.500 F 0.102 -0.479 -20° 08' 09.70" 1.000E-01 0.500 F -0.095 -0.208 19.0 V 0.70 0.28 o 691 1.07 Yes Yes
2013ES89 O C 2013-03-31.36138 1.000E-05 12:18:17.010 1.500E-01 0.500 F 0.183 -0.153 -21° 21' 25.60" 1.000E-01 0.500 F -0.072 -0.192 19.0 V 0.70 0.08 o 691 0.49 Yes Yes
2013ES89 O C 2013-03-31.36626 1.000E-05 12:18:16.500 1.500E-01 0.500 F 0.183 -0.995 -21° 21' 32.50" 1.000E-01 0.500 F -0.072 -0.430 18.6 V 0.70 -0.32 o 691 2.19 Yes Yes
2013ES89 O C 2013-03-31.37111 1.000E-05 12:18:16.220 1.500E-01 0.500 F 0.183 1.332 -21° 21' 36.70" 1.000E-01 0.500 F -0.072 1.985 18.6 V 0.70 -0.32 o 691 4.74 No Yes
2013FQ10 O C t 2013-03-31.38194 1.000E-05 11:58:11.580 1.500E-01 0.500 F 0.085 0.863 -01° 05' 27.80" 1.000E-01 0.500 F 0.182 -1.935 o 691 4.16 No No
2013FQ10 O C t 2013-03-31.38492 1.000E-05 11:58:11.080 1.500E-01 0.500 F 0.085 0.582 -01° 04' 59.60" 1.000E-01 0.500 F 0.182 -0.761 20.0 V 0.70 1.20 o 691 1.95 Yes Yes
2013FQ10 O C t 2013-03-31.38782 1.000E-05 11:58:10.590 1.500E-01 0.500 F 0.085 0.244 -01° 04' 33.50" 1.000E-01 0.500 F 0.182 -0.960 20.5 V 0.70 1.70 o 691 2.02 Yes Yes
2013FZ7 O C 2013-03-31.40140 1.000E-05 12:50:48.540 1.500E-01 0.500 F 0.319 0.122 -10° 23' 59.00" 1.000E-01 0.500 F 0.032 0.194 19.2 V 0.70 0.48 o 691 0.46 Yes Yes
2013FZ7 O C 2013-03-31.40419 1.000E-05 12:50:47.010 1.500E-01 0.500 F 0.319 -0.016 -10° 24' 04.80" 1.000E-01 0.500 F 0.032 -0.078 19.3 V 0.70 0.58 o 691 0.16 Yes Yes
2013FZ7 O C 2013-03-31.40706 1.000E-05 12:50:45.400 1.500E-01 0.500 F 0.319 -0.696 -10° 24' 10.60" 1.000E-01 0.500 F 0.032 -0.195 19.0 V 0.70 0.28 o 691 1.46 Yes Yes
2013FX13 O C t 2013-03-31.45120 1.000E-05 13:38:39.110 1.500E-01 0.500 F 0.105 0.202 +34° 33' 51.60" 1.000E-01 0.500 F 0.214 -0.479 20.5 V 0.70 0.54 o 691 1.07 Yes Yes
2013FX13 O C t 2013-03-31.45414 1.000E-05 13:38:37.400 1.500E-01 0.500 F 0.105 0.197 +34° 33' 38.00" 1.000E-01 0.500 F 0.214 -1.083 20.2 V 0.70 0.24 o 691 2.27 Yes Yes
2009JR5 O C H 2013-04-01.15481 1.000E-05 07:36:47.190 1.500E-01 0.500 F -0.126 0.409 +29° 50' 20.20" 1.000E-01 0.500 F 0.215 0.195 21.4 V 0.70 0.71 o 691 0.95 Yes Yes
2009JR5 O C H 2013-04-01.15837 1.000E-05 07:36:48.560 1.500E-01 0.500 F -0.126 0.360 +29° 50' 17.10" 1.000E-01 0.500 F 0.215 -0.269 20.8 V 0.70 0.11 o 691 0.94 Yes Yes
2009JR5 O C H 2013-04-01.16127 1.000E-05 07:36:49.590 1.500E-01 0.500 F -0.126 -0.799 +29° 50' 15.70" 1.000E-01 0.500 F 0.215 0.482 21.0 V 0.70 0.31 o 691 1.95 Yes Yes
2013GF O C t 2013-04-01.22926 1.000E-05 09:11:01.370 1.500E-01 0.559 F -0.086 0.441 +32° 55' 54.60" 1.000E-01 0.559 F 0.331 -0.562 20.5 V 0.70 0.25 o 691 1.30 Yes Yes
2013GF O C t 2013-04-01.23711 1.000E-05 09:11:00.640 1.500E-01 0.559 F -0.086 0.386 +32° 55' 33.60" 1.000E-01 0.559 F 0.331 -1.156 20.4 V 0.70 0.15 o 691 2.22 Yes Yes
2013GF O C 2013-04-01.24751 1.000E-05 09:10:59.620 1.500E-01 0.559 F -0.086 -0.413 +32° 55' 07.50" 1.000E-01 0.559 F 0.331 -0.151 20.1 V 0.70 -0.15 o 691 0.80 Yes Yes
2013GF O C 2013-04-01.25157 1.000E-05 09:10:59.280 1.500E-01 0.559 F -0.086 -0.013 +32° 54' 57.00" 1.000E-01 0.559 F 0.331 -0.048 20.2 V 0.70 -0.05 o 691 0.09 Yes Yes
2013GF O C 2013-04-01.25564 1.000E-05 09:10:58.910 1.500E-01 0.559 F -0.086 0.009 +32° 54' 45.70" 1.000E-01 0.559 F 0.331 -0.707 20.5 V 0.70 0.25 o 691 1.28 Yes Yes
2013EL28 O C 2013-04-01.28919 1.000E-05 13:24:33.250 1.500E-01 0.500 F 0.148 -0.066 +27° 54' 44.20" 1.000E-01 0.500 F 0.177 -0.263 20.0 V 0.70 -0.15 o 691 0.56 Yes Yes
2013EL28 O C 2013-04-01.29448 1.000E-05 13:24:33.770 1.500E-01 0.500 F 0.148 -0.054 +27° 54' 38.50" 1.000E-01 0.500 F 0.177 -0.298 20.3 V 0.70 0.15 o 691 0.63 Yes Yes
2013EL28 O C 2013-04-01.29948 1.000E-05 13:24:34.240 1.500E-01 0.500 F 0.148 -0.315 +27° 54' 33.50" 1.000E-01 0.500 F 0.177 0.079 20.2 V 0.70 0.05 o 691 0.66 Yes Yes
2013EO126 O C 2013-04-01.35063 1.000E-05 12:38:41.200 1.500E-01 0.500 F 0.292 -0.440 +06° 05' 54.50" 1.000E-01 0.500 F 0.097 -0.031 18.0 V 0.70 0.27 o 691 0.89 Yes Yes
2013EO126 O C 2013-04-01.35348 1.000E-05 12:38:40.530 1.500E-01 0.500 F 0.292 -0.273 +06° 06' 05.10" 1.000E-01 0.500 F 0.097 -0.021 18.0 V 0.70 0.27 o 691 0.55 Yes Yes
2013EO126 O C 2013-04-01.35637 1.000E-05 12:38:39.830 1.500E-01 0.500 F 0.292 -0.410 +06° 06' 15.90" 1.000E-01 0.500 F 0.097 0.038 17.9 V 0.70 0.17 o 691 0.83 Yes Yes
2013EK89 O C H 2013-04-01.41989 1.000E-05 13:21:00.450 1.500E-01 0.750 F 0.028 0.477 +03° 45' 51.00" 1.000E-01 0.750 F 0.148 0.350 20.9 V 0.70 0.20 o 691 0.80 Yes Yes
2013EK89 O C H 2013-04-01.42444 1.000E-05 13:21:00.490 1.500E-01 0.750 F 0.028 0.022 +03° 45' 57.30" 1.000E-01 0.750 F 0.148 -0.542 20.8 V 0.70 0.10 o 691 0.74 Yes Yes
2013EK89 O C H 2013-04-01.42864 1.000E-05 13:21:00.520 1.500E-01 0.750 F 0.028 -0.509 +03° 46' 04.30" 1.000E-01 0.750 F 0.148 -0.179 21.0 V 0.70 0.30 o 691 0.73 Yes Yes
2013EK89 O C 2013-04-01.44639 1.000E-05 13:21:00.740 1.500E-01 0.750 F 0.028 -1.441 +03° 46' 31.50" 1.000E-01 0.750 F 0.148 -1.007 20.7 V 0.70 0.00 o 691 2.38 Yes Yes
2013EK89 O C 2013-04-01.45323 1.000E-05 13:21:00.950 1.500E-01 0.750 F 0.028 0.034 +03° 46' 43.90" 1.000E-01 0.750 F 0.148 0.602 20.6 V 0.70 -0.10 o 691 0.82 Yes Yes
2013EK89 O C 2013-04-01.45888 1.000E-05 13:21:00.990 1.500E-01 0.750 F 0.028 -0.763 +03° 46' 51.20" 1.000E-01 0.750 F 0.148 -1.009 21.1 V 0.70 0.40 o 691 1.72 Yes Yes
2013EK89 O C H 2013-04-01.46808 1.000E-05 13:21:01.180 1.500E-01 0.750 F 0.028 -0.228 +03° 47' 07.10" 1.000E-01 0.750 F 0.148 0.389 21.1 V 0.70 0.40 o 691 0.61 Yes Yes
2013EK89 O C H 2013-04-01.47362 1.000E-05 13:21:01.240 1.500E-01 0.750 F 0.028 -0.743 +03° 47' 14.40" 1.000E-01 0.750 F 0.148 -1.039 21.2 V 0.70 0.50 o 691 1.73 Yes Yes
2013EK89 O C H 2013-04-01.47899 1.000E-05 13:21:01.370 1.500E-01 0.750 F 0.028 -0.184 +03° 47' 23.80" 1.000E-01 0.750 F 0.148 -0.097 21.0 V 0.70 0.30 o 691 0.28 Yes Yes
2013FW13 O C 2013-04-02.26385 1.000E-05 16:05:33.440 1.500E-01 0.500 F 0.035 -0.795 +35° 49' 29.10" 1.000E-01 0.500 F 0.163 0.383 20.3 V 0.70 -0.10 o 691 1.80 Yes Yes
2013FW13 O C 2013-04-02.26676 1.000E-05 16:05:32.610 1.500E-01 0.500 F 0.035 -0.272 +35° 49' 40.70" 1.000E-01 0.500 F 0.163 0.319 20.5 V 0.70 0.10 o 691 0.85 Yes Yes
2013FW13 O C 2013-04-02.26969 1.000E-05 16:05:31.660 1.500E-01 0.500 F 0.035 -1.124 +35° 49' 52.90" 1.000E-01 0.500 F 0.163 0.782 20.4 V 0.70 0.00 o 691 2.79 Yes Yes
2013FZ7 O C t 2013-04-02.28803 1.000E-05 12:32:38.740 1.500E-01 0.500 F 0.281 0.310 -11° 32' 10.70" 1.000E-01 0.500 F 0.043 -0.885 18.7 V 0.70 0.20 o 691 1.89 Yes Yes
2013FZ7 O C t 2013-04-02.29086 1.000E-05 12:32:36.840 1.500E-01 0.500 F 0.281 0.617 -11° 32' 17.10" 1.000E-01 0.500 F 0.043 -0.713 18.6 V 0.70 0.10 o 691 1.90 Yes Yes
2013FZ7 O C t 2013-04-02.29351 1.000E-05 12:32:35.050 1.500E-01 0.500 F 0.281 0.755 -11° 32' 22.90" 1.000E-01 0.500 F 0.043 -0.362 18.8 V 0.70 0.30 o 691 1.69 Yes Yes
2013FA8 O C 2013-04-02.30588 1.000E-05 12:51:28.580 1.500E-01 0.500 F 0.265 -0.052 +01° 02' 28.10" 1.000E-01 0.500 F 0.258 -0.130 19.7 V 0.70 0.46 o 691 0.28 Yes Yes
2013FA8 O C 2013-04-02.31007 1.000E-05 12:51:27.910 1.500E-01 0.500 F 0.265 0.035 +01° 02' 31.60" 1.000E-01 0.500 F 0.258 0.014 19.8 V 0.70 0.56 o 691 0.07 Yes Yes
2013FA8 O C 2013-04-02.31429 1.000E-05 12:51:27.220 1.500E-01 0.500 F 0.265 -0.108 +01° 02' 35.00" 1.000E-01 0.500 F 0.258 0.035 19.7 V 0.70 0.46 o 691 0.23 Yes Yes
2013GH O C H 2013-04-02.44369 1.000E-05 13:45:10.990 1.500E-01 0.500 F 0.204 0.143 -09° 48' 52.60" 1.000E-01 0.500 F 0.080 -0.673 o 691 1.44 Yes No
2013GH O C H 2013-04-02.44661 1.000E-05 13:45:10.870 1.500E-01 0.500 F 0.204 0.214 -09° 49' 05.40" 1.000E-01 0.500 F 0.080 0.359 o 691 0.88 Yes No
2013GH O C H 2013-04-02.44935 1.000E-05 13:45:10.760 1.500E-01 0.500 F 0.204 0.310 -09° 49' 18.00" 1.000E-01 0.500 F 0.080 0.737 o 691 1.68 Yes No
2013GF O C 2013-04-03.17069 1.000E-05 09:08:40.300 1.500E-01 0.500 F 0.038 -0.146 +31° 30' 08.20" 1.000E-01 0.500 F 0.391 -0.286 19.8 V 0.70 -0.43 o 691 0.65 Yes Yes
2013GF O C 2013-04-03.17332 1.000E-05 09:08:40.060 1.500E-01 0.500 F 0.038 -0.321 +31° 30' 01.20" 1.000E-01 0.500 F 0.391 -0.021 20.4 V 0.70 0.17 o 691 0.66 Yes Yes
2013GF O C 2013-04-03.17606 1.000E-05 09:08:39.840 1.500E-01 0.500 F 0.038 -0.120 +31° 29' 53.80" 1.000E-01 0.500 F 0.391 0.153 20.1 V 0.70 -0.13 o 691 0.40 Yes Yes
2013EC28 O C t 2013-04-03.18974 1.000E-05 09:48:27.310 1.500E-01 0.500 F 0.057 0.141 +21° 17' 33.60" 1.000E-01 0.500 F 0.250 -0.199 21.4 V 0.70 0.58 o 691 0.53 Yes Yes
2013EC28 O C t 2013-04-03.19392 1.000E-05 09:48:28.040 1.500E-01 0.500 F 0.057 0.305 +21° 17' 35.60" 1.000E-01 0.500 F 0.250 -0.310 20.8 V 0.70 -0.02 o 691 0.95 Yes Yes
2013FW13 O C H 2013-04-03.37761 1.000E-05 16:00:09.860 1.500E-01 0.500 F 0.070 0.076 +36° 58' 22.60" 1.000E-01 0.500 F 0.271 -1.080 o 691 2.20 Yes No
2013FW13 O C H 2013-04-03.38022 1.000E-05 16:00:09.090 1.500E-01 0.500 F 0.070 0.348 +36° 58' 32.10" 1.000E-01 0.500 F 0.271 -0.934 o 691 2.03 Yes No
2010CE55 O C 2013-04-03.48695 1.000E-05 15:51:15.360 1.500E-01 0.500 F 0.027 -0.208 -17° 37' 03.10" 1.000E-01 0.500 F 0.135 0.067 19.3 V 0.70 0.00 o 691 0.45 Yes Yes
2010CE55 O C 2013-04-03.48972 1.000E-05 15:51:16.440 1.500E-01 0.500 F 0.027 -0.403 -17° 37' 02.00" 1.000E-01 0.500 F 0.135 0.121 19.5 V 0.70 0.20 o 691 0.86 Yes Yes
2010CE55 O C 2013-04-03.49291 1.000E-05 15:51:17.580 1.500E-01 0.500 F 0.027 -2.121 -17° 37' 00.10" 1.000E-01 0.500 F 0.135 0.809 19.0 V 0.70 -0.30 o 691 4.43 No Yes
2011BH10 O C 2013-04-04.14712 1.000E-05 04:49:07.910 1.500E-01 0.500 F -0.073 0.448 +27° 13' 58.00" 1.000E-01 0.500 F 0.265 -0.296 20.8 V 0.70 -0.04 o 691 1.09 Yes Yes
Apollo O C 2013-04-04.14712 1.000E-05 04:46:39.360 1.500E-01 0.500 F -0.102 -0.570 +27° 26' 50.50" 1.000E-01 0.500 F 0.240 -0.009 o 691 1.14 Yes No
2011BH10 O C 2013-04-04.14977 1.000E-05 04:49:08.580 1.500E-01 0.500 F -0.073 -0.026 +27° 13' 58.00" 1.000E-01 0.500 F 0.265 -0.092 20.6 V 0.70 -0.24 o 691 0.19 Yes Yes
Apollo O C 2013-04-04.14977 1.000E-05 04:46:39.780 1.500E-01 0.500 F -0.102 -0.139 +27° 26' 51.50" 1.000E-01 0.500 F 0.240 0.447 o 691 0.94 Yes No
2011BH10 O C 2013-04-04.15290 1.000E-05 04:49:09.330 1.500E-01 0.500 F -0.073 -1.139 +27° 13' 58.00" 1.000E-01 0.500 F 0.265 0.150 20.8 V 0.70 -0.04 o 691 2.33 Yes Yes
Apollo O C 2013-04-04.15290 1.000E-05 04:46:40.200 1.500E-01 0.500 F -0.102 -0.642 +27° 26' 52.20" 1.000E-01 0.500 F 0.240 0.506 o 691 1.64 Yes No
2013FX13 O C t 2013-04-04.42598 1.000E-05 13:08:10.810 1.500E-01 0.500 F 0.233 -0.138 +30° 08' 49.50" 1.000E-01 0.500 F 0.130 -1.958 o 691 3.70 No No
2013FX13 O C t 2013-04-04.42998 1.000E-05 13:08:09.150 1.500E-01 0.500 F 0.233 -2.051 +30° 08' 34.40" 1.000E-01 0.500 F 0.130 -2.347 o 691 5.85 No No
2013FX13 O C t 2013-04-04.43400 1.000E-05 13:08:07.540 1.500E-01 0.500 F 0.233 -3.236 +30° 08' 19.20" 1.000E-01 0.500 F 0.130 -2.760 o 691 8.00 No No
2012RV16 O C 2013-04-07.14900 1.000E-05 11:33:49.570 1.500E-01 0.500 F 0.196 -0.167 +06° 18' 40.80" 1.000E-01 0.500 F 0.261 0.075 21.8 V 0.70 0.23 o 691 0.37 Yes Yes
2012RV16 O C 2013-04-07.17842 1.000E-05 11:33:47.400 1.500E-01 0.500 F 0.196 -0.292 +06° 18' 23.30" 1.000E-01 0.500 F 0.261 -0.051 21.5 V 0.70 -0.07 o 691 0.60 Yes Yes
2012RV16 O C 2013-04-07.20784 1.000E-05 11:33:45.210 1.500E-01 0.500 F 0.196 -0.645 +06° 18' 05.90" 1.000E-01 0.500 F 0.261 -0.054 21.7 V 0.70 0.13 o 691 1.30 Yes Yes
2013GC34 O C 2013-04-07.24942 1.000E-05 14:32:02.320 1.500E-01 0.500 F 0.120 0.521 -03° 51' 49.90" 1.000E-01 0.500 F 0.117 -1.776 19.4 V 0.70 -0.18 o 691 3.67 No Yes
2013GC34 O C 2013-04-07.26705 1.000E-05 14:32:05.020 1.500E-01 0.500 F 0.120 -0.088 -03° 50' 33.10" 1.000E-01 0.500 F 0.117 -0.160 19.6 V 0.70 0.02 o 691 0.37 Yes Yes
2013GC34 O C 2013-04-07.28468 1.000E-05 14:32:07.710 1.500E-01 0.500 F 0.120 -0.660 -03° 49' 18.00" 1.000E-01 0.500 F 0.117 -0.286 19.4 V 0.70 -0.18 o 691 1.45 Yes Yes
2002GB O C 2013-04-07.30844 1.000E-05 15:34:35.300 1.500E-01 0.500 F -0.003 -1.705 -02° 43' 15.90" 1.000E-01 0.500 F 0.119 -0.166 20.1 V 0.70 0.78 o 691 3.42 No Yes
2002GB O C 2013-04-07.32622 1.000E-05 15:34:31.400 1.500E-01 0.500 F -0.003 0.001 -02° 43' 23.60" 1.000E-01 0.500 F 0.119 -0.002 19.4 V 0.70 0.08 o 691 0.01 Yes Yes
2002GB O C 2013-04-07.34386 1.000E-05 15:34:27.410 1.500E-01 0.500 F -0.003 0.020 -02° 43' 31.50" 1.000E-01 0.500 F 0.119 -0.106 19.3 V 0.70 -0.02 o 691 0.22 Yes Yes
2006HB O C 2013-04-08.28939 1.000E-05 15:05:06.930 1.500E-01 0.500 F 0.221 -0.428 -11° 32' 13.30" 1.000E-01 0.500 F 0.095 0.058 o 691 0.87 Yes No
2006HB O C 2013-04-08.30713 1.000E-05 15:05:06.830 1.500E-01 0.500 F 0.221 -0.110 -11° 32' 06.70" 1.000E-01 0.500 F 0.095 -0.205 o 691 0.47 Yes No
2006HB O C 2013-04-08.32486 1.000E-05 15:05:06.700 1.500E-01 0.500 F 0.221 -0.164 -11° 31' 59.40" 1.000E-01 0.500 F 0.095 0.212 o 691 0.54 Yes No
2013GV68 O C 2013-04-11.30589 1.000E-05 15:12:58.140 1.500E-01 0.500 F 0.105 -0.187 -03° 17' 43.00" 1.000E-01 0.500 F 0.112 -0.061 18.6 V 0.70 0.19 o 691 0.41 Yes Yes
2002GB O C 2013-04-11.30836 1.000E-05 15:19:07.810 1.500E-01 0.500 F 0.069 -0.224 -03° 13' 49.50" 1.000E-01 0.500 F 0.132 0.040 19.5 V 0.70 0.35 o 691 0.45 Yes Yes
2013GV68 O C 2013-04-11.32358 1.000E-05 15:12:49.990 1.500E-01 0.500 F 0.105 -0.475 -03° 17' 14.10" 1.000E-01 0.500 F 0.112 0.223 18.6 V 0.70 0.19 o 691 1.08 Yes Yes
2002GB O C 2013-04-11.32604 1.000E-05 15:19:03.420 1.500E-01 0.500 F 0.069 -0.068 -03° 13' 57.90" 1.000E-01 0.500 F 0.132 0.120 19.6 V 0.70 0.45 o 691 0.27 Yes Yes
2013GV68 O C 2013-04-11.34122 1.000E-05 15:12:41.710 1.500E-01 0.500 F 0.105 -3.040 -03° 16' 45.60" 1.000E-01 0.500 F 0.112 0.197 20.1 V 0.70 1.69 o 691 5.90 No Yes
2002GB O C 2013-04-11.34368 1.000E-05 15:18:59.020 1.500E-01 0.500 F 0.069 -0.102 -03° 14' 06.40" 1.000E-01 0.500 F 0.132 0.073 19.6 V 0.70 0.45 o 691 0.25 Yes Yes
2006HB O C 2013-04-13.28632 1.000E-05 15:04:22.330 1.500E-01 0.500 F 0.286 -0.295 -10° 56' 40.30" 1.000E-01 0.500 F 0.144 -0.531 19.9 V 0.70 -0.42 o 691 1.22 Yes Yes
2013GU79 O C 2013-04-13.28879 1.000E-05 15:12:08.060 1.500E-01 0.500 F 0.161 -0.365 -11° 49' 48.80" 1.000E-01 0.500 F 0.118 0.417 20.4 V 0.70 -0.04 o 691 1.12 Yes Yes
1988TA O C 2013-04-13.29150 1.000E-05 14:52:20.430 1.500E-01 0.500 F 0.278 -0.049 -13° 28' 35.20" 1.000E-01 0.500 F 0.081 -0.018 19.2 V 0.70 0.54 o 691 0.10 Yes Yes
2006HB O C 2013-04-13.30402 1.000E-05 15:04:22.010 1.500E-01 0.500 F 0.286 -0.301 -10° 56' 31.70" 1.000E-01 0.500 F 0.144 0.026 20.3 V 0.70 -0.02 o 691 0.61 Yes Yes
2013GU79 O C 2013-04-13.30650 1.000E-05 15:12:09.560 1.500E-01 0.500 F 0.079 -0.186 -11° 49' 46.40" 1.000E-01 0.500 F 0.186 0.044 20.6 V 0.70 0.16 o 691 0.39 Yes Yes
1988TA O C 2013-04-13.30922 1.000E-05 14:52:21.720 1.500E-01 0.500 F 0.278 -0.108 -13° 28' 24.30" 1.000E-01 0.500 F 0.081 0.027 19.1 V 0.70 0.44 o 691 0.22 Yes Yes
2006HB O C 2013-04-13.32173 1.000E-05 15:04:21.670 1.500E-01 0.500 F 0.286 -0.533 -10° 56' 23.70" 1.000E-01 0.500 F 0.144 -0.046 20.2 V 0.70 -0.12 o 691 1.07 Yes Yes
2013GU79 O C 2013-04-13.32421 1.000E-05 15:12:11.020 1.500E-01 0.500 F 0.079 -0.524 -11° 49' 44.10" 1.000E-01 0.500 F 0.186 -0.420 20.3 V 0.70 -0.13 o 691 1.35 Yes Yes
1988TA O C 2013-04-13.32691 1.000E-05 14:52:23.010 1.500E-01 0.500 F 0.278 0.005 -13° 28' 13.30" 1.000E-01 0.500 F 0.081 0.083 19.2 V 0.70 0.54 o 691 0.17 Yes Yes
2002OA22 O C 2013-04-13.46067 1.000E-05 21:06:28.820 1.500E-01 0.500 F 0.058 -0.307 -05° 47' 32.60" 1.000E-01 0.500 F 0.212 -0.526 21.3 V 0.70 0.59 o 691 1.22 Yes Yes
2002OA22 O C 2013-04-13.47337 1.000E-05 21:06:30.390 1.500E-01 0.500 F 0.058 -0.300 -05° 47' 19.40" 1.000E-01 0.500 F 0.212 0.244 21.3 V 0.70 0.59 o 691 0.77 Yes Yes
2002OA22 O C 2013-04-13.48608 1.000E-05 21:06:31.960 1.500E-01 0.500 F 0.058 -0.242 -05° 47' 07.20" 1.000E-01 0.500 F 0.212 -0.001 21.5 V 0.70 0.79 o 691 0.48 Yes Yes
1988PA O C 2013-04-15.17294 1.000E-05 13:38:18.610 1.500E-01 0.500 F 0.129 -0.126 +02° 22' 08.30" 1.000E-01 0.500 F 0.033 -0.006 19.5 V 0.70 0.47 o 691 0.25 Yes Yes
1988PA O C 2013-04-15.19058 1.000E-05 13:38:17.440 1.500E-01 0.500 F 0.129 -0.301 +02° 22' 23.40" 1.000E-01 0.500 F 0.033 0.298 20.1 V 0.70 1.07 o 691 0.85 Yes Yes
1988PA O C 2013-04-15.20822 1.000E-05 13:38:16.280 1.500E-01 0.500 F 0.129 -0.249 +02° 22' 37.80" 1.000E-01 0.500 F 0.033 -0.094 19.4 V 0.70 0.37 o 691 0.53 Yes Yes
2002EZ11 O C 2013-04-15.23729 1.000E-05 14:16:25.930 1.500E-01 0.500 F 0.161 -0.497 -11° 10' 48.50" 1.000E-01 0.500 F -0.093 -0.035 19.5 V 0.70 0.65 o 691 1.00 Yes Yes
2002EZ11 O C 2013-04-15.25497 1.000E-05 14:16:22.430 1.500E-01 0.500 F 0.161 0.297 -11° 10' 30.90" 1.000E-01 0.500 F -0.093 -0.389 19.5 V 0.70 0.65 o 691 0.98 Yes Yes
2002EZ11 O C 2013-04-15.27614 1.000E-05 14:16:18.120 1.500E-01 0.500 F 0.161 -0.367 -11° 10' 08.70" 1.000E-01 0.500 F -0.093 0.262 19.6 V 0.70 0.75 o 691 0.90 Yes Yes
2006FJ9 O C 2013-04-16.23323 1.000E-05 14:10:36.510 1.500E-01 0.500 F 0.090 0.006 -01° 14' 25.00" 1.000E-01 0.500 F 0.185 0.110 18.2 V 0.70 0.22 o 691 0.22 Yes Yes
2006FJ9 O C 2013-04-16.25087 1.000E-05 14:10:36.330 1.500E-01 0.500 F 0.090 0.037 -01° 14' 05.40" 1.000E-01 0.500 F 0.185 -0.161 18.2 V 0.70 0.22 o 691 0.33 Yes Yes
2006FJ9 O C 2013-04-16.26852 1.000E-05 14:10:36.140 1.500E-01 0.500 F 0.090 0.068 -01° 13' 45.30" 1.000E-01 0.500 F 0.185 0.045 18.2 V 0.70 0.22 o 691 0.16 Yes Yes
2011WU95 O C 2013-04-16.28963 1.000E-05 15:05:52.740 1.500E-01 0.500 F 0.218 -0.012 -04° 49' 31.50" 1.000E-01 0.500 F 0.115 0.163 19.7 V 0.70 0.17 o 691 0.33 Yes Yes
2011WU95 O C 2013-04-16.30728 1.000E-05 15:05:52.010 1.500E-01 0.500 F 0.218 -0.063 -04° 49' 28.00" 1.000E-01 0.500 F 0.115 0.054 19.8 V 0.70 0.27 o 691 0.17 Yes Yes
2011WU95 O C 2013-04-16.32494 1.000E-05 15:05:51.270 1.500E-01 0.500 F 0.218 -0.164 -04° 49' 24.30" 1.000E-01 0.500 F 0.115 0.128 20.4 V 0.70 0.88 o 691 0.42 Yes Yes
2008GB110 O C 2013-04-18.17457 1.000E-05 13:39:53.450 1.500E-01 0.500 F 0.193 0.197 -00° 32' 04.70" 1.000E-01 0.500 F 0.073 -0.014 19.3 V 0.70 0.70 o 691 0.40 Yes Yes
2008GB110 O C 2013-04-18.19221 1.000E-05 13:39:53.190 1.500E-01 0.500 F 0.193 -0.086 -00° 30' 23.40" 1.000E-01 0.500 F 0.073 0.073 19.0 V 0.70 0.39 o 691 0.23 Yes Yes
2008GB110 O C 2013-04-18.20986 1.000E-05 13:39:52.920 1.500E-01 0.500 F 0.193 -0.349 -00° 28' 42.30" 1.000E-01 0.500 F 0.073 -0.048 19.0 V 0.70 0.39 o 691 0.71 Yes Yes
1988TA O C 2013-04-18.28802 1.000E-05 15:00:32.710 1.500E-01 0.500 F 0.248 -0.105 -12° 21' 05.40" 1.000E-01 0.500 F 0.155 0.014 18.8 V 0.70 0.74 o 691 0.21 Yes Yes
1988TA O C 2013-04-18.30574 1.000E-05 15:00:34.430 1.500E-01 0.500 F 0.248 -0.392 -12° 20' 47.70" 1.000E-01 0.500 F 0.155 -0.035 18.6 V 0.70 0.55 o 691 0.79 Yes Yes
1988TA O C 2013-04-18.32344 1.000E-05 15:00:36.170 1.500E-01 0.500 F 0.248 -0.208 -12° 20' 29.80" 1.000E-01 0.500 F 0.155 0.000 18.6 V 0.70 0.55 o 691 0.42 Yes Yes
Moshup O C 2013-04-19.46795 1.000E-05 21:06:24.470 1.500E-01 0.500 F 0.014 0.023 -05° 58' 28.90" 1.000E-01 0.500 F 0.207 0.047 19.6 V 0.70 1.08 o 691 0.11 Yes Yes
Moshup O C 2013-04-19.48066 1.000E-05 21:06:25.870 1.500E-01 0.500 F 0.014 -0.464 -05° 57' 57.30" 1.000E-01 0.500 F 0.207 0.126 19.0 V 0.70 0.48 o 691 0.96 Yes Yes
Moshup O C 2013-04-19.49337 1.000E-05 21:06:27.300 1.500E-01 0.500 F 0.014 -0.463 -05° 57' 25.60" 1.000E-01 0.500 F 0.207 0.293 19.0 V 0.70 0.48 o 691 1.10 Yes Yes
2008GB110 O C 2013-04-20.16562 1.000E-05 13:39:39.770 1.500E-01 0.500 F 0.129 -0.385 +02° 32' 30.90" 1.000E-01 0.500 F 0.033 0.333 19.2 V 0.70 0.40 o 691 1.03 Yes Yes
2008GB110 O C 2013-04-20.18330 1.000E-05 13:39:39.560 1.500E-01 0.500 F 0.129 -0.247 +02° 34' 05.70" 1.000E-01 0.500 F 0.033 -0.028 19.3 V 0.70 0.50 o 691 0.50 Yes Yes
2008GB110 O C 2013-04-20.20097 1.000E-05 13:39:39.330 1.500E-01 0.500 F 0.129 -0.242 +02° 35' 40.80" 1.000E-01 0.500 F 0.033 0.031 19.5 V 0.70 0.70 o 691 0.49 Yes Yes
2006FJ9 O C 2013-04-20.21875 1.000E-05 14:10:21.410 1.500E-01 0.500 F 0.096 0.005 +00° 02' 25.60" 1.000E-01 0.500 F 0.206 -0.065 18.1 V 0.70 0.26 o 691 0.13 Yes Yes
2006FJ9 O C 2013-04-20.23642 1.000E-05 14:10:21.170 1.500E-01 0.500 F 0.096 0.116 +00° 02' 46.60" 1.000E-01 0.500 F 0.206 0.046 18.1 V 0.70 0.26 o 691 0.25 Yes Yes
2006FJ9 O C 2013-04-20.25407 1.000E-05 14:10:20.900 1.500E-01 0.500 F 0.096 -0.066 +00° 03' 07.40" 1.000E-01 0.500 F 0.206 -0.023 18.1 V 0.70 0.26 o 691 0.14 Yes Yes
2011WU95 O C 2013-04-20.27437 1.000E-05 15:03:05.140 1.500E-01 0.500 F 0.224 0.056 -04° 35' 55.40" 1.000E-01 0.500 F 0.104 0.010 19.3 V 0.70 0.05 o 691 0.11 Yes Yes
1998FH74 O C 2013-04-20.27685 1.000E-05 15:13:57.880 1.500E-01 0.500 F 0.111 -1.051 -04° 41' 13.00" 1.000E-01 0.500 F 0.157 0.506 20.7 V 0.70 -0.30 o 691 2.33 Yes Yes
2011WU95 O C 2013-04-20.29204 1.000E-05 15:03:04.140 1.500E-01 0.500 F 0.224 -0.224 -04° 35' 52.00" 1.000E-01 0.500 F 0.104 -0.050 19.4 V 0.70 0.15 o 691 0.46 Yes Yes
1998FH74 O C 2013-04-20.29450 1.000E-05 15:13:56.800 1.500E-01 0.500 F 0.111 -0.304 -04° 41' 05.30" 1.000E-01 0.500 F 0.157 -0.284 20.9 V 0.70 -0.10 o 691 0.83 Yes Yes
2011WU95 O C 2013-04-20.30969 1.000E-05 15:03:03.160 1.500E-01 0.500 F 0.224 -0.118 -04° 35' 48.30" 1.000E-01 0.500 F 0.104 0.179 19.4 V 0.70 0.15 o 691 0.43 Yes Yes
1998FH74 O C 2013-04-20.31215 1.000E-05 15:13:55.650 1.500E-01 0.500 F 0.111 -0.583 -04° 40' 56.30" 1.000E-01 0.500 F 0.157 0.222 20.8 V 0.70 -0.20 o 691 1.25 Yes Yes
2013GR38 O C 2013-04-21.19736 1.000E-05 12:01:45.770 1.500E-01 0.500 F 0.160 -1.110 -08° 44' 27.60" 1.000E-01 0.500 F -0.052 -0.335 18.6 V 0.70 -0.06 o 691 2.33 Yes Yes
2013GR38 O C 2013-04-21.19908 1.000E-05 12:01:45.250 1.500E-01 0.500 F 0.160 -0.095 -08° 44' 22.20" 1.000E-01 0.500 F -0.052 0.002 18.9 V 0.70 0.24 o 691 0.19 Yes Yes
2013GR38 O C 2013-04-21.20085 1.000E-05 12:01:44.650 1.500E-01 0.500 F 0.160 -0.008 -08° 44' 17.10" 1.000E-01 0.500 F -0.052 -0.112 19.1 V 0.70 0.44 o 691 0.23 Yes Yes
2013HP11 O C 2013-04-21.29951 1.000E-05 12:32:18.230 1.500E-01 0.500 F 0.329 -0.384 -00° 13' 24.80" 1.000E-01 0.500 F 0.281 -0.250 19.8 V 0.70 0.73 o 691 0.93 Yes Yes
2013HP11 O C 2013-04-21.30120 1.000E-05 12:32:18.780 1.500E-01 0.500 F 0.329 -0.726 -00° 13' 14.70" 1.000E-01 0.500 F 0.281 -0.310 19.5 V 0.70 0.43 o 691 1.60 Yes Yes
2013HP11 O C 2013-04-21.30292 1.000E-05 12:32:19.410 1.500E-01 0.500 F 0.329 -0.028 -00° 13' 04.10" 1.000E-01 0.500 F 0.281 -0.051 19.5 V 0.70 0.43 o 691 0.12 Yes Yes
2013GQ38 O C H 2013-04-21.34516 1.000E-05 11:41:15.410 1.500E-01 0.500 F 0.282 0.163 +06° 40' 36.30" 1.000E-01 0.500 F 0.321 -0.039 19.7 V 0.70 0.07 o 691 0.34 Yes Yes
2013GQ38 O C H 2013-04-21.34715 1.000E-05 11:41:15.650 1.500E-01 0.500 F 0.282 -0.002 +06° 40' 50.10" 1.000E-01 0.500 F 0.321 -0.398 19.3 V 0.70 -0.33 o 691 0.82 Yes Yes
2013GV68 O C H 2013-04-21.40320 1.000E-05 14:12:26.180 1.500E-01 0.500 F 0.096 -0.100 +00° 09' 39.10" 1.000E-01 0.500 F 0.206 -0.136 19.3 V 0.70 0.54 o 691 0.34 Yes Yes
2013GV68 O C H 2013-04-21.40598 1.000E-05 14:12:25.400 1.500E-01 0.500 F 0.096 -0.093 +00° 09' 41.60" 1.000E-01 0.500 F 0.206 -0.029 19.2 V 0.70 0.44 o 691 0.20 Yes Yes
2013GV68 O C H 2013-04-21.40954 1.000E-05 14:12:24.420 1.500E-01 0.500 F 0.096 0.193 +00° 09' 44.60" 1.000E-01 0.500 F 0.206 -0.093 19.2 V 0.70 0.44 o 691 0.43 Yes Yes
2013GY68 O C 2013-04-21.41532 1.000E-05 16:18:39.900 1.500E-01 0.500 F 0.121 -0.379 +26° 36' 58.20" 1.000E-01 0.500 F 0.259 -0.107 19.9 V 0.70 0.08 o 691 0.81 Yes Yes
2013GY68 O C 2013-04-21.41901 1.000E-05 16:18:40.900 1.500E-01 0.500 F 0.121 -0.099 +26° 37' 04.30" 1.000E-01 0.500 F 0.259 -0.076 19.9 V 0.70 0.08 o 691 0.26 Yes Yes
2013GY68 O C 2013-04-21.42247 1.000E-05 16:18:41.820 1.500E-01 0.500 F 0.121 -0.076 +26° 37' 09.80" 1.000E-01 0.500 F 0.259 -0.260 19.9 V 0.70 0.08 o 691 0.56 Yes Yes
2013GV68 O C 2013-04-30.16101 1.000E-05 13:40:38.170 1.500E-01 0.500 F 0.129 -0.017 +01° 38' 24.40" 1.000E-01 0.500 F 0.088 -0.132 19.8 V 0.70 0.20 o 691 0.27 Yes Yes
2013GV68 O C 2013-04-30.17692 1.000E-05 13:40:35.420 1.500E-01 0.500 F 0.129 -0.087 +01° 38' 30.80" 1.000E-01 0.500 F 0.088 0.037 19.8 V 0.70 0.20 o 691 0.19 Yes Yes
2013GV68 O C 2013-04-30.19629 1.000E-05 13:40:31.920 1.500E-01 0.500 F 0.129 -2.405 +01° 38' 38.40" 1.000E-01 0.500 F 0.088 0.067 19.2 V 0.70 -0.40 o 691 4.77 No Yes
1977QQ5 O C 2013-04-30.38950 1.000E-05 16:33:16.930 1.500E-01 0.500 F 0.007 0.305 +14° 27' 54.60" 1.000E-01 0.500 F 0.250 0.218 19.8 V 0.70 -0.02 o 691 0.75 Yes Yes
1977QQ5 O C 2013-04-30.40723 1.000E-05 16:33:16.030 1.500E-01 0.500 F 0.007 -0.632 +14° 28' 02.20" 1.000E-01 0.500 F 0.250 -0.573 19.8 V 0.70 -0.02 o 691 1.71 Yes Yes
1977QQ5 O C 2013-04-30.42494 1.000E-05 16:33:15.200 1.500E-01 0.500 F 0.007 -0.563 +14° 28' 10.80" 1.000E-01 0.500 F 0.250 -0.341 19.9 V 0.70 0.08 o 691 1.32 Yes Yes
2013GV68 O C 2013-05-02.17065 1.000E-05 13:35:18.630 1.500E-01 0.500 F 0.111 -0.399 +01° 50' 07.70" 1.000E-01 0.500 F 0.139 0.154 19.8 V 0.70 0.01 o 691 0.86 Yes Yes
2013GV68 O C 2013-05-02.18389 1.000E-05 13:35:16.610 1.500E-01 0.500 F 0.111 -0.113 +01° 50' 11.70" 1.000E-01 0.500 F 0.139 0.031 19.8 V 0.70 0.01 o 691 0.24 Yes Yes
2013GV68 O C 2013-05-02.19713 1.000E-05 13:35:14.570 1.500E-01 0.500 F 0.111 -0.111 +01° 50' 15.40" 1.000E-01 0.500 F 0.139 -0.382 19.8 V 0.70 0.00 o 691 0.80 Yes Yes
2013GV68 O C 2013-05-03.15127 1.000E-05 13:32:56.000 1.500E-01 0.500 F 0.123 -0.492 +01° 54' 53.80" 1.000E-01 0.500 F 0.092 -0.190 20.0 V 0.70 0.11 o 691 1.06 Yes Yes
2013GV68 O C 2013-05-03.17296 1.000E-05 13:32:52.880 1.500E-01 0.500 F 0.123 -0.047 +01° 55' 01.10" 1.000E-01 0.500 F 0.092 1.138 19.7 V 0.70 -0.19 o 691 2.29 Yes Yes
2013GV68 O C 2013-05-03.19466 1.000E-05 13:32:49.690 1.500E-01 0.500 F 0.123 -0.575 +01° 55' 05.90" 1.000E-01 0.500 F 0.092 -0.013 19.7 V 0.70 -0.19 o 691 1.16 Yes Yes
1998KG3 O C 2013-05-09.15884 1.000E-05 13:29:25.560 1.500E-01 0.500 F 0.371 -0.418 +00° 23' 38.20" 1.000E-01 0.500 F 0.184 -0.093 o 691 0.86 Yes No
1998KG3 O C 2013-05-09.17476 1.000E-05 13:29:25.410 1.500E-01 0.500 F 0.371 -0.213 +00° 23' 54.50" 1.000E-01 0.500 F 0.184 -0.060 o 691 0.44 Yes No
1998KG3 O C 2013-05-09.19067 1.000E-05 13:29:25.260 1.500E-01 0.500 F 0.371 0.131 +00° 24' 10.70" 1.000E-01 0.500 F 0.184 -0.097 o 691 0.33 Yes No
2004GD28 O C 2013-05-10.43255 1.000E-05 22:16:44.350 1.500E-01 0.500 F -0.168 -0.211 +16° 38' 43.50" 1.000E-01 0.500 F 0.268 -0.075 20.7 V 0.70 1.03 o 691 0.48 Yes Yes
2001SL9 O C 2013-05-10.43502 1.000E-05 22:27:03.420 1.500E-01 0.500 F -0.111 -0.050 +16° 55' 54.60" 1.000E-01 0.500 F 0.265 0.074 20.1 V 0.70 0.49 o 691 0.18 Yes Yes
2004GD28 O C 2013-05-10.44525 1.000E-05 22:16:47.320 1.500E-01 0.500 F -0.168 0.012 +16° 39' 09.10" 1.000E-01 0.500 F 0.268 0.401 20.3 V 0.70 0.63 o 691 0.82 Yes Yes
2001SL9 O C 2013-05-10.44772 1.000E-05 22:27:05.160 1.500E-01 0.500 F -0.111 0.190 +16° 56' 12.40" 1.000E-01 0.500 F 0.265 -0.364 20.4 V 0.70 0.79 o 691 0.82 Yes Yes
2004GD28 O C 2013-05-10.45794 1.000E-05 22:16:50.270 1.500E-01 0.500 F -0.168 0.017 +16° 39' 34.20" 1.000E-01 0.500 F 0.268 0.406 20.2 V 0.70 0.53 o 691 0.83 Yes Yes
2001SL9 O C 2013-05-10.46042 1.000E-05 22:27:06.850 1.500E-01 0.500 F -0.111 -0.242 +16° 56' 31.40" 1.000E-01 0.500 F 0.265 0.409 19.8 V 0.70 0.19 o 691 0.95 Yes Yes
2004BW58 O C 2013-05-12.39236 1.000E-05 16:22:57.740 1.500E-01 0.500 F 0.143 -0.632 +08° 20' 17.90" 1.000E-01 0.500 F 0.096 0.116 21.4 V 0.70 0.31 o 691 1.29 Yes Yes
2004BW58 O C 2013-05-12.40759 1.000E-05 16:22:56.230 1.500E-01 0.500 F 0.143 -0.744 +08° 20' 22.30" 1.000E-01 0.500 F 0.096 0.096 21.0 V 0.70 -0.09 o 691 1.50 Yes Yes
2004BW58 O C 2013-05-12.42278 1.000E-05 16:22:54.820 1.500E-01 0.500 F 0.143 0.551 +08° 20' 27.30" 1.000E-01 0.500 F 0.096 0.703 21.4 V 0.70 0.32 o 691 1.79 Yes Yes
2004JN13 O C 2013-05-13.15918 1.000E-05 13:26:47.000 1.500E-01 0.500 F 0.245 -0.696 +07° 00' 37.80" 1.000E-01 0.500 F 0.191 -0.425 21.2 V 0.70 -0.51 o 691 1.63 Yes Yes
2013HN11 O C 2013-05-13.16960 1.000E-05 13:25:20.480 1.500E-01 0.500 F 0.321 -0.090 -00° 13' 37.90" 1.000E-01 0.500 F 0.117 -0.044 20.3 V 0.70 0.18 o 691 0.21 Yes Yes
2004JN13 O C 2013-05-13.17518 1.000E-05 13:26:46.370 1.500E-01 0.500 F 0.245 -0.226 +07° 00' 39.30" 1.000E-01 0.500 F 0.191 -0.162 21.2 V 0.70 -0.51 o 691 0.56 Yes Yes
2013HN11 O C 2013-05-13.18560 1.000E-05 13:25:23.180 1.500E-01 0.500 F 0.321 0.211 -00° 14' 38.10" 1.000E-01 0.500 F 0.117 -0.331 20.2 V 0.70 0.08 o 691 0.82 Yes Yes
2004JN13 O C 2013-05-13.19119 1.000E-05 13:26:45.710 1.500E-01 0.500 F 0.245 -0.191 +07° 00' 40.50" 1.000E-01 0.500 F 0.191 -0.195 21.6 V 0.70 -0.11 o 691 0.55 Yes Yes
2013HN11 O C 2013-05-13.20161 1.000E-05 13:25:25.830 1.500E-01 0.500 F 0.321 -0.163 -00° 15' 37.70" 1.000E-01 0.500 F 0.117 0.004 20.1 V 0.70 -0.02 o 691 0.34 Yes Yes
Verenia O C 2013-05-13.22115 1.000E-05 16:03:42.530 1.500E-01 0.500 F 0.050 -0.744 -05° 39' 10.00" 1.000E-01 0.500 F 0.225 0.155 20.2 V 0.70 0.55 o 691 1.52 Yes Yes
Verenia O C 2013-05-13.23880 1.000E-05 16:03:41.280 1.500E-01 0.500 F 0.050 -0.565 -05° 39' 01.40" 1.000E-01 0.500 F 0.225 0.206 19.8 V 0.70 0.16 o 691 1.20 Yes Yes
Verenia O C 2013-05-13.25994 1.000E-05 16:03:39.770 1.500E-01 0.500 F 0.050 -0.483 -05° 38' 51.30" 1.000E-01 0.500 F 0.225 0.061 20.0 V 0.70 0.36 o 691 0.98 Yes Yes
1998KG3 O C 2013-05-14.16302 1.000E-05 13:30:19.030 1.500E-01 0.500 F 0.230 -0.058 +01° 34' 41.80" 1.000E-01 0.500 F 0.090 0.234 o 691 0.48 Yes No
2013HN11 O C 2013-05-14.16562 1.000E-05 13:28:21.950 1.500E-01 0.500 F 0.298 0.169 -01° 15' 21.20" 1.000E-01 0.500 F 0.076 -0.062 o 691 0.38 Yes No
1998KG3 O C 2013-05-14.17095 1.000E-05 13:30:19.060 1.500E-01 0.500 F 0.230 -0.138 +01° 34' 47.00" 1.000E-01 0.500 F 0.090 -0.053 o 691 0.30 Yes No
2013HN11 O C 2013-05-14.17356 1.000E-05 13:28:23.240 1.500E-01 0.500 F 0.298 -0.389 -01° 15' 50.00" 1.000E-01 0.500 F 0.076 0.453 o 691 1.24 Yes No

[1-200] [201-400] [401-600] [601-800] [801-1000] [1001-1200] [1201-1400] [1401-1600] [1601-1800] [1801-2000] [2001-2200] [2201-2400] [2401-2600] [2601-2800] [2801-3000] [3001-3200] [3201-3400] [3401-3600] [3601-3800] [3801-4000] [4001-4200] [4201-4400] [4401-4600] [4601-4800] [4801-5000] [5001-5200] [5201-5400] [5401-5600] [5601-5800] [5801-6000] [6001-6200] [6201-6400] [6401-6600] [6601-6800] [6801-7000] [7001-7200] [7201-7400] [7401-7600] [7601-7800] [7801-8000] [8001-8200] [8201-8400] [8401-8600] [8601-8800] [8801-9000] [9001-9200] [9201-9400] [9401-9600] [9601-9800] [9801-10000] [10001-10200] [10201-10400] [10401-10600] [10601-10800] [10801-11000] [11001-11200] [11201-11400] [11401-11600] [11601-11800] [11801-12000] [12001-12200] [12201-12400] [12401-12600] [12601-12800] [12801-13000] [13001-13200] [13201-13400] [13401-13600] [13601-13800] [13801-14000] [14001-14200] [14201-14400] [14401-14600] [14601-14800] [14801-15000] [15001-15200] [15201-15400] [15401-15600] [15601-15800] [15801-16000] [16001-16200] [16201-16400] [16401-16600] [16601-16800] [16801-17000] [17001-17200] [17201-17400] [17401-17600] [17601-17800] [17801-18000] [18001-18200] [18201-18400] [18401-18600] [18601-18800] [18801-19000] [19001-19200] [19201-19400] [19401-19600] [19601-19800] [19801-20000] [20001-20200] [20201-20400] [20401-20600] [20601-20800] [20801-21000] [21001-21200] [21201-21400] [21401-21600] [21601-21800] [21801-22000] [22001-22200] [22201-22400] [22401-22600] [22601-22800] [22801-23000] [23001-23200] [23201-23400] [23401-23600] [23601-23800] [23801-24000] [24001-24200] [24201-24400] [24401-24600] [24601-24800] [24801-25000] [25001-25200] [25201-25400] [25401-25600] [25601-25800] [25801-26000] [26001-26200] [26201-26400] [26401-26600] [26601-26800] [26801-27000] [27001-27200] [27201-27400] [27401-27600] [27601-27800] [27801-28000] [28001-28200] [28201-28400] [28401-28600] [28601-28800] [28801-29000] [29001-29200] [29201-29400] [29401-29600] [29601-29800] [29801-30000] [30001-30200] [30201-30400] [30401-30600] [30601-30800] [30801-31000] [31001-31200] [31201-31400] [31401-31600] [31601-31800] [31801-32000] [32001-32200] [32201-32400] [32401-32600] [32601-32800] [32801-33000] [33001-33200] [33201-33400] [33401-33600] [33601-33800] [33801-34000] [34001-34200] [34201-34400] [34401-34600] [34601-34800] [34801-35000] [35001-35200] [35201-35400] [35401-35600] [35601-35800] [35801-36000] [36001-36200] [36201-36400] [36401-36600] [36601-36800] [36801-37000] [37001-37200] [37201-37400] [37401-37600] [37601-37800] [37801-38000] [38001-38200] [38201-38400] [38401-38600] [38601-38800] [38801-39000] [39001-39200] [39201-39400] [39401-39600] [39601-39800] [39801-40000] [40001-40200] [40201-40400] [40401-40600] [40601-40800] [40801-41000] [41001-41200] [41201-41400] [41401-41600] [41601-41800] [41801-42000] [42001-42200] [42201-42400] [42401-42600] [42601-42800] [42801-43000] [43001-43200] [43201-43400] [43401-43600] [43601-43800] [43801-44000] [44001-44200] [44201-44400] [44401-44600] [44601-44800] [44801-45000] [45001-45200] [45201-45400] [45401-45600] [45601-45800] [45801-46000] [46001-46200] [46201-46400] [46401-46600] [46601-46800] [46801-47000] [47001-47200] [47201-47400] [47401-47600] [47601-47800] [47801-48000] [48001-48200] [48201-48400] [48401-48600] [48601-48800] [48801-49000] [49001-49200] [49201-49400] [49401-49600] [49601-49800] [49801-50000] [50001-50200] [50201-50388]